Weather observations for the past three days for
Asheboro, Asheboro Municipal Airport
Imperial (Metric)
Date Time (edt) Wind (mph) Vis. (mi.) Weather Sky Cond. Temperature (ºF) Relative Humidity Wind Chill (°F) Heat Index (°F) Pressure Precipitation (in)
Air Dwpt 6 hour altimeter (in) sea level (mb) 1 hr 3 hr 6 hr
Max. Min.
09 12:15 S 9 10.00 Overcast OVC014 64.6 58.1 80% 29.92 0.0
09 11:55 SW 9 10.00 Overcast BKN016 OVC020 64.4 57.9 80% 29.92 0.0
09 11:35 S 10 10.00 Overcast BKN016 BKN022 OVC028 64.6 57.2 77% 29.92 0.0
09 11:20 S 10 10.00 Mostly Cloudy BKN018 BKN060 64.4 57.2 78% 29.92 0.0
09 11:00 S 10 G 16 10.00 Partly Cloudy SCT018 64.4 57.2 78% 29.91 0.0
09 10:39 S 9 G 17 10.00 Partly Cloudy SCT090 64.4 55.4 73% 29.92 0.0
09 10:19 S 8 G 16 10.00 Partly Cloudy SCT020 SCT035 SCT042 62.6 53.6 73% 29.94 0.0
09 10:00 S 7 10.00 Mostly Cloudy SCT037 SCT047 BKN090 62.6 51.8 68% 29.95 0.0
09 09:15 SW 8 10.00 Mostly Cloudy SCT035 SCT042 BKN100 58.6 52 79% 29.96 0.0
09 08:55 S 7 10.00 Mostly Cloudy SCT035 SCT043 BKN100 58.1 53.2 84% 29.96 0.0
09 08:35 S 9 10.00 Overcast SCT039 BKN046 OVC100 57 53.1 87% 29.95 0.0
09 08:15 S 5 10.00 Light Rain BKN046 BKN080 OVC100 56.8 52.9 87% 29.96 0.0
09 07:55 S 5 10.00 Overcast SCT044 SCT070 OVC100 55.6 52.3 55.9 48.6 89% 29.96 0.0
09 07:35 Calm 10.00 Partly Cloudy SCT044 SCT075 SCT110 53.8 51.6 92% 29.95 0.0
09 07:15 Calm 10.00 Partly Cloudy SCT120 50.9 50 97% 29.95 0.0
09 06:55 Calm 10.00 Fair CLR 49.1 48.2 97% 29.95 0.0
09 06:35 Calm 10.00 Fair CLR 50 49.1 97% 29.94 0.0
09 06:15 Calm 10.00 Fair CLR 48.7 48.2 98% 29.92 0.0
09 05:35 Calm 10.00 Fair CLR 49.6 48.2 95% 29.93 0.0
09 05:15 Calm 10.00 Fair CLR 53.2 49.5 87% 29.93 0.0
09 04:55 S 5 10.00 Fair CLR 53.6 49.6 87% 29.93 0.0
09 04:35 S 5 10.00 Fair CLR 54.5 49.5 83% 29.93 0.0
09 04:15 S 6 10.00 Fair CLR 53.6 49.3 85% 29.93 0.0
09 03:55 S 5 10.00 Fair CLR 53.6 49.1 85% 29.95 0.0
09 03:35 S 3 10.00 Fair CLR 53.6 48.6 83% 29.95 0.0
09 03:15 S 5 10.00 Fair CLR 54.7 47.7 77% 29.95 0.0
09 02:55 S 6 10.00 Fair CLR 55.9 46.6 71% 29.96 0.0
09 02:35 S 3 10.00 Fair CLR 54.5 45.9 73% 29.96 0.0
09 02:15 SW 3 10.00 Fair CLR 55.9 44.4 65% 29.97 0.0
09 01:55 Calm 10.00 Fair CLR 53.8 45 59.2 53.6 72% 29.98 0.0
09 01:35 Calm 10.00 Fair CLR 54.5 44.8 70% 29.99 0.0
09 01:15 S 3 10.00 Fair CLR 56.3 43.7 63% 29.99 0.0
09 00:55 S 3 10.00 Fair CLR 57.7 43.3 59% 30 0.0
09 00:35 S 3 10.00 Fair CLR 57.7 43.5 59% 30 0.0
09 00:15 S 5 10.00 Fair CLR 58.3 43 57% 30 0.0
08 23:55 S 5 10.00 Fair CLR 58.6 42.8 56% 30 0.0
08 23:35 S 6 10.00 Fair CLR 58.6 42.3 55% 30 0.0
08 23:15 S 6 10.00 Fair CLR 58.1 42.1 55% 29.99 0.0
08 22:55 S 5 10.00 Fair CLR 55.8 44.4 66% 30.01 0.0
08 22:35 Calm 10.00 Fair CLR 54.5 47.3 77% 30.01 0.0
08 22:15 Calm 10.00 Fair CLR 55 46.6 73% 30.01 0.0
08 21:55 Calm 10.00 Fair CLR 55.6 45.5 69% 30.01 0.0
08 21:35 Calm 10.00 Fair CLR 55.9 45.1 67% 30.01 0.0
08 21:15 Calm 10.00 Fair CLR 56.1 46.2 70% 30 0.0
08 20:55 Calm 10.00 Fair CLR 55.9 46.6 71% 30 0.0
08 20:35 Calm 10.00 Fair CLR 56.3 47.1 71% 29.99 0.0
08 20:15 Calm 10.00 Fair CLR 58.3 46.6 65% 29.99 0.0
08 19:55 Calm 10.00 Fair CLR 59.4 46 67.6 59.4 62% 29.98 0.0
08 19:35 Calm 10.00 Fair CLR 60.1 44.6 57% 29.99 0.0
08 19:15 Calm 10.00 Fair CLR 61.7 43 50% 29.99 0.0
08 18:55 Calm 10.00 Fair CLR 63.1 43.5 49% 29.99 0.0
08 18:35 S 5 10.00 Fair CLR 67.3 35.4 31% 29.99 0.0
08 18:15 S 5 10.00 Fair CLR 67.1 35.2 31% 29.99 0.0
08 17:55 SW 5 10.00 Fair CLR 66.4 34.3 31% 29.98 0.0
08 17:35 Calm 10.00 Fair CLR 66.6 32 28% 29.99 0.0
08 17:15 SW 3 10.00 Fair CLR 67.1 33.3 29% 29.99 0.0
08 16:55 S 5 10.00 Fair CLR 67.6 33.1 28% 29.98 0.0
08 16:35 S 7 10.00 Fair CLR 67.6 34.3 29% 29.99 0.0
08 16:15 Calm 10.00 Fair CLR 67.3 33.1 28% 30 0.0
08 15:55 SE 3 10.00 Fair CLR 66.4 33.3 29% 30.01 0.0
08 15:35 SW 6 10.00 Fair CLR 66 32.7 29% 30.01 0.0
08 15:15 Calm 10.00 Fair CLR 65.5 32.4 29% 30.02 0.0
08 14:55 W 3 10.00 Fair CLR 65.7 33.4 30% 30.02 0.0
08 14:35 NE 5 10.00 Fair CLR 65.3 32.4 29% 30.03 0.0
08 14:15 W 6 10.00 Fair CLR 64.6 31.5 29% 30.04 0.0
08 13:55 Calm 10.00 Fair CLR 63.9 31.6 30% 30.05 0.0
08 13:35 Calm 10.00 Fair CLR 63.9 33.6 32% 30.06 0.0
08 13:15 S 6 10.00 Fair CLR 63.7 35.1 35% 30.06 0.0
08 12:55 Calm 10.00 Fair CLR 62.1 33.3 34% 30.06 0.0
08 12:35 Calm 10.00 Fair CLR 61.3 34.3 36% 30.08 0.0
08 12:15 Calm 10.00 Fair CLR 60.8 33.1 35% 30.09 0.0
08 11:55 Calm 10.00 Fair CLR 59.9 34.2 38% 30.09 0.0
08 11:35 N 9 10.00 Fair CLR 60.3 35.6 40% 30.09 0.0
08 11:15 N 5 10.00 Fair CLR 59.5 37.4 44% 30.1 0.0
08 10:55 N 6 10.00 Fair CLR 58.6 35.6 42% 30.1 0.0
08 10:39 N 9 10.00 Fair CLR 59 33.8 39% 30.1 0.0
08 10:19 N 3 10.00 Fair CLR 57.2 37.4 48% 30.09 0.0
08 09:59 Calm 10.00 Fair CLR 57.2 44.6 63% 30.1 0.0
08 09:40 N 3 10.00 Fair CLR 55.4 44.6 67% 30.09 0.0
08 09:20 N 3 10.00 Fair CLR 53.6 46.4 77% 30.09 0.0
08 08:59 Calm 10.00 Fair CLR 51.8 46.4 82% 30.09 0.0
08 08:35 Calm 10.00 Fair CLR 48.6 48.6 100% 30.08 0.0
08 08:15 Calm 10.00 Fair CLR 47.3 47.3 100% 30.08 0.0
08 07:55 Calm 7.00 Fair CLR 45.7 45.7 49.5 42.3 100% 30.07 0.0 0.01
08 07:35 Calm 5.00 Fog/Mist CLR 44.4 44.4 100% 30.06 0.0
08 07:15 Calm 4.00 Fog/Mist CLR 43.2 43.2 100% 30.05 0.0
08 06:55 Calm 4.00 Fog/Mist CLR 42.3 42.3 100% 30.04 0.0
08 06:35 Calm 2.50 Fog/Mist CLR 42.8 42.8 100% 30.03 0.0
08 06:15 Calm 3.00 Fog/Mist CLR 43 43 100% 30.03 0.0
08 05:55 Calm 3.00 Fog/Mist CLR 43.3 43.3 100% 30.02 0.0
08 05:35 Calm 1.50 Fog/Mist BKN002 44.1 44.1 100% 30.01 0.0
08 05:15 Calm 0.75 Fog/Mist OVC002 44.1 44.1 100% 30.01 0.0
08 04:55 Calm 1.50 Fog/Mist BKN002 44.4 44.4 100% 30.01 0.0 0.01 0.01
08 04:35 Calm 0.50 Fog OVC002 44.6 44.6 100% 30 0.0 0.01
08 04:15 Calm 0.50 Fog OVC002 45.3 45.3 100% 29.99 0.0 0.01
08 03:35 Calm 0.75 Fog/Mist OVC002 46.8 46.8 100% 29.99 0.0
08 03:15 Calm 0.25 Fog OVC002 47.3 47.3 100% 29.99 0.0
08 02:55 Calm 0.25 Fog OVC002 47.3 47.3 100% 29.99 0.0
08 02:35 Calm 0.25 Fog OVC002 48 48 100% 29.98 0.0
08 02:15 Calm 0.15 Fog OVC002 48.9 48.9 100% 29.98 0.0
08 01:55 Calm 0.50 Fog OVC002 49.5 49.5 54.9 49.5 100% 29.98 0.0
08 01:35 Calm 0.15 Fog OVC002 50 50 100% 29.98 0.0
08 01:15 Calm 0.25 Fog OVC002 50.4 50.4 100% 29.98 0.0
08 00:55 Calm 0.25 Fog OVC002 50.4 50.4 100% 29.98 0.0
08 00:35 Calm 0.25 Fog OVC002 50.5 50.5 100% 29.97 0.0
08 00:15 Calm 0.25 Fog OVC002 51.3 51.3 100% 29.96 0.0
07 23:55 Calm 0.25 Fog OVC002 51.8 51.8 100% 29.96 0.0
07 23:35 Calm 0.25 Fog OVC002 51.8 51.8 100% 29.96 0.0
07 23:15 Calm 0.50 Fog OVC002 51.8 51.8 100% 29.96 0.0
07 22:55 Calm 0.15 Fog OVC002 51.8 51.8 100% 29.95 0.0
07 22:35 Calm 5.00 Fog/Mist BKN002 BKN065 52.7 52.7 100% 29.94 0.0
07 22:15 Calm 7.00 Mostly Cloudy SCT002 BKN065 BKN080 53.2 53.2 100% 29.93 0.0
07 21:55 Calm 10.00 Overcast SCT002 BKN065 OVC080 53.8 53.8 100% 29.93 0.0
07 21:35 Calm 10.00 Overcast OVC070 54 53.8 99% 29.92 0.0
07 21:15 Calm 10.00 Overcast OVC070 54 53.8 99% 29.9 0.0
07 20:55 Calm 10.00 Overcast SCT060 OVC070 54.1 53.6 98% 29.9 0.0
07 20:35 N 5 10.00 Overcast OVC050 54.5 54 98% 29.88 0.0
07 20:15 N 6 10.00 Overcast SCT011 OVC049 54.5 53.8 97% 29.89 0.0
07 19:55 N 5 10.00 Overcast BKN011 OVC049 54.7 54 65.7 54.7 97% 29.88 0.0 0.01 0.15
07 19:35 Calm 10.00 Overcast BKN009 OVC039 55 54 96% 29.88 0.0 0.01
07 19:15 Calm 10.00 Light Rain SCT009 SCT034 OVC040 54.9 54.1 97% 29.87 0.0 0.01
07 18:55 NE 3 7.00 Light Rain BKN009 BKN027 OVC034 54.7 53.8 97% 29.86 0.0 0.09
07 18:35 N 5 10.00 Overcast OVC009 55.4 54 95% 29.85 0.0
07 18:15 NE 7 10.00 Overcast OVC009 55.9 54.1 94% 29.83 0.0
07 17:55 NE 3 10.00 Overcast OVC009 55.9 54.9 96% 29.84 0.0 0.01
07 17:35 NE 5 10.00 Overcast OVC009 55.9 55 97% 29.82 0.0 0.01
07 17:15 N 5 10.00 Light Rain OVC009 55.4 54.5 97% 29.85 0.0 0.01
07 16:55 N 7 5.00 Rain OVC007 56.1 54.9 96% 29.84 0.0 0.04 0.04
07 16:35 N 9 G 18 10.00 Overcast OVC007 57 54.9 93% 29.82 0.0
07 16:15 NE 10 G 20 10.00 Overcast OVC007 58.1 55.4 91% 29.81 0.0
07 15:55 NE 8 10.00 Overcast OVC007 60.1 57.6 91% 29.81 0.0
07 15:35 N 10 10.00 Overcast OVC007 60.3 58.3 93% 29.81 0.0
07 15:15 NE 7 10.00 Overcast OVC007 60.8 59.5 96% 29.82 0.0
07 14:55 N 8 10.00 Overcast BKN007 OVC014 63.3 62.1 96% 29.81 0.0
07 14:35 N 9 10.00 Overcast SCT007 BKN029 OVC034 65.3 63.9 95% 29.81 0.0
07 14:15 Calm 10.00 Light Drizzle BKN015 OVC029 65.3 64.2 96% 29.81 0.0
07 13:55 N 5 10.00 Overcast SCT005 BKN017 OVC027 64.9 63.9 65.3 63.1 96% 29.81 0.0 0.17
07 13:35 Calm 10.00 Overcast SCT005 OVC026 65.1 64.8 99% 29.82 0.0
07 13:15 N 3 10.00 Light Rain SCT009 BKN025 OVC030 64.9 64.6 99% 29.83 0.0
07 12:55 NW 3 10.00 Overcast BKN007 OVC020 64.4 64.4 100% 29.84 0.0
07 12:35 N 6 10.00 Overcast BKN007 OVC011 64.6 64.6 100% 29.8 0.0
07 12:15 N 5 10.00 Overcast BKN007 OVC030 64.4 64.4 100% 29.8 0.0
07 11:55 Calm 10.00 Light Rain SCT005 BKN014 OVC100 64.2 64.2 100% 29.81 0.0 0.04
07 11:35 Calm 5.00 Rain SCT006 BKN014 OVC090 64.2 64.2 100% 29.84 0.0 0.03
07 11:15 W 5 10.00 Rain SCT006 BKN012 OVC019 64.2 64.2 100% 29.86 0.0
07 10:55 W 5 10.00 Light Rain SCT006 OVC012 63.9 63.9 100% 29.85 0.0 0.02 0.13
07 10:35 Calm 10.00 Light Drizzle SCT005 OVC010 63.5 63.5 100% 29.84 0.0 0.01
07 10:15 Calm 10.00 Light Rain BKN007 OVC010 63.9 63.9 100% 29.83 0.0 0.01
07 09:55 Calm 10.00 Drizzle OVC003 63.3 63.3 100% 29.82 0.0 0.04
07 09:35 Calm 7.00 Light Rain OVC003 63.5 63.5 100% 29.84 0.0 0.04
07 09:15 Calm 4.00 Light Rain OVC003 63.1 63.1 100% 29.85 0.0 0.02
07 08:55 NW 3 2.50 Rain OVC003 63.5 63.5 100% 29.87 0.0 0.07
07 08:35 SW 3 5.00 Light Rain OVC005 63.5 63.5 100% 29.86 0.0 0.02
07 08:15 SW 6 7.00 Light Rain OVC007 63.7 63.7 100% 29.85 0.0
07 07:55 SW 6 10.00 Overcast OVC007 63.7 63.7 63.7 61.9 100% 29.85 0.0 0.01 0.23
07 07:35 S 6 7.00 Light Rain OVC007 63.5 63.5 100% 29.84 0.0 0.01
07 06:55 S 6 10.00 Overcast OVC010 63.1 63.1 100% 29.85 0.0
07 06:35 Calm 10.00 Overcast OVC014 62.8 62.8 100% 29.85 0.0
07 06:15 S 3 10.00 Light Drizzle BKN018 OVC060 62.6 62.6 100% 29.85 0.0
07 05:55 Calm 10.00 Drizzle SCT023 BKN060 OVC070 62.6 62.6 100% 29.84 0.0 0.01
07 05:35 Calm 10.00 Light Rain SCT006 BKN020 OVC026 62.4 62.4 100% 29.85 0.0
07 05:15 Calm 10.00 Overcast BKN011 BKN020 OVC026 62.2 62.2 100% 29.85 0.0
07 04:55 SE 3 10.00 Light Drizzle OVC013 62.1 62.1 100% 29.85 0.0 0.02 0.21
07 04:35 SE 3 10.00 Light Drizzle SCT009 OVC015 62.1 62.1 100% 29.85 0.0 0.02
07 04:15 Calm 7.00 Light Rain BKN006 OVC013 61.9 61.9 100% 29.86 0.0 0.01
07 03:55 Calm 10.00 Rain BKN006 OVC018 62.1 62.1 100% 29.87 0.0 0.04
07 03:35 SW 3 10.00 Light Rain OVC020 62.2 62.2 100% 29.88 0.0 0.03
07 03:15 S 3 7.00 Rain BKN020 BKN046 OVC070 62.1 62.1 100% 29.86 0.0 0.02
07 02:55 Calm 5.00 Rain BKN018 BKN031 OVC046 62.2 62.2 100% 29.89 0.0 0.15
07 02:35 SW 3 5.00 Rain SCT031 BKN043 OVC049 62.2 62.2 100% 29.9 0.0 0.11
07 02:15 Calm 5.00 Rain SCT036 BKN048 OVC065 61.9 61.9 100% 29.92 0.0 0.06
07 01:55 Calm 10.00 Rain OVC060 62.1 62.1 69.4 62.1 100% 29.92 0.0 0.37
07 01:35 Calm 10.00 NULL NULL 62.1 62.1 100% 29.91 0.0
07 01:15 Calm 10.00 Mostly Cloudy BKN090 62.1 62.1 100% 29.92 0.0
07 00:35 SW 3 10.00 Partly Cloudy SCT030 SCT040 SCT050 62.6 62.6 100% 29.93 0.0 0.05
07 00:15 E 3 5.00 Rain SCT036 BKN049 OVC085 62.6 62.6 100% 29.88 0.0 0.05
06 23:55 SW 5 4.00 Rain SCT036 BKN048 OVC070 63.1 63.1 100% 29.97 0.0 0.3
06 23:15 SW 6 10.00 Light Drizzle BKN060 BKN070 OVC110 65.7 64.2 95% 29.96 0.0 0.01
06 22:55 SW 8 7.00 Light Rain SCT065 BKN095 OVC120 66.7 63.5 89% 29.97 0.0 0.02 0.02
06 22:35 SW 10 10.00 Light Rain BKN090 OVC120 68.5 63.1 83% 29.96 0.0
06 22:15 SW 6 10.00 Light Rain SCT095 BKN120 69.4 61.9 77% 29.94 0.0
06 21:55 SW 6 10.00 Light Rain SCT120 69.3 63 80% 29.92 0.0
06 21:35 S 6 10.00 Partly Cloudy SCT120 68.9 63 81% 29.91 0.0
06 21:15 S 3 10.00 Light Rain SCT110 68.9 64.4 86% 29.9 0.0
06 20:55 S 3 10.00 Light Rain SCT110 67.8 65.5 92% 29.91 0.0
06 20:35 Calm 10.00 Partly Cloudy SCT120 67.6 65.5 93% 29.9 0.0
06 20:15 Calm 10.00 Partly Cloudy SCT120 67.6 65.7 93% 29.91 0.0
06 19:55 Calm 10.00 Fair CLR 68 65.5 72.5 61.5 92% 29.91 0.0 0.06
06 19:35 Calm 10.00 Fair CLR 68.2 65.3 91% 29.91 0.0
06 18:55 Calm 10.00 Fair CLR 72 63.5 75% 29.91 0.0
06 18:35 SW 3 10.00 Fair CLR 72.1 63.1 73% 29.91 0.0
06 18:15 SW 7 10.00 Fair CLR 72.5 62.6 71% 29.92 0.0
06 17:35 SW 8 10.00 Fair CLR 71.8 62.4 72% 29.9 0.0
06 17:15 SW 8 10.00 Fair CLR 71.4 61.9 72% 29.91 0.0
06 16:55 SW 12 10.00 Fair CLR 70.9 61.3 72% 29.92 0.0 0.06
06 16:35 SW 8 10.00 Fair CLR 70 62.2 77% 29.92 0.0
06 16:15 SW 10 10.00 Fair CLR 68.7 61 76% 29.91 0.0
06 15:55 SW 9 G 18 10.00 Fair CLR 67.5 62.4 84% 29.92 0.0
06 15:35 S 9 10.00 Partly Cloudy SCT035 SCT045 SCT110 64.8 63 94% 29.92 0.0
06 15:15 S 10 10.00 Light Rain SCT031 BKN042 BKN065 62.8 62.8 100% 29.93 0.0
06 14:55 S 8 10.00 Light Rain SCT035 SCT060 BKN070 61.9 61.9 100% 29.93 0.0 0.06
06 14:35 S 13 G 18 10.00 Light Rain SCT029 SCT050 BKN100 61.9 61.9 100% 29.96 0.0 0.06
06 14:15 S 8 5.00 Rain SCT021 SCT040 OVC100 61.9 61.9 100% 29.96 0.0 0.04
06 13:55 SW 10 G 16 2.00 Rain BKN023 BKN040 OVC065 63.1 62.1 70.5 62.2 96% 30.02 0.0 0.21 0.21
06 13:35 SW 10 10.00 Mostly Cloudy SCT055 SCT070 BKN085 70 57.2 64% 30 0.0
06 13:15 S 9 10.00 Partly Cloudy SCT100 SCT120 70 57 64% 29.97 0.0
06 12:55 S 12 10.00 Partly Cloudy SCT090 69.4 56.3 63% 29.98 0.0
06 12:35 S 13 10.00 Partly Cloudy SCT090 69.6 56.1 62% 29.99 0.0
Date Time (edt) Wind (mph) Vis. (mi.) Weather Sky Cond. Air Dwpt Max. Min. Relative Humidity Wind Chill (°F) Heat Index (°F) altimeter (in) sea level (mb) 1 hr 3 hr 6 hr
6 hour
Temperature (ºF) Pressure Precipitation (in)